SPSO

Details ICAO SPSO (PIO)
Name PISCO INTL
Region Peru
Timezone America/Lima (UTC-5.0)
Plans Departing 13
Arriving 13
Stats Elevation 39 ft / 12 m (AMSL)
Location -13.744864° -76.220282°
Runways 1
Magnetic Variation 2.005° W
Sunrise 2017-12-15 10:33:36 UTC / 2017-12-15 05:33:36 Local
Sunset 2017-12-15 23:29:27 UTC / 2017-12-15 18:29:27 Local
Advertisement - Login to hide

Runways

ID Width Length Bearing (true) Bearing (mag) Surface Threshold Offset Overrun Length
04 148 ft / 45 m 9,940 ft / 3,030 m 37.83° 39.83° Asphalt 0 ft / 0 m 625 ft / 191 m
22 148 ft / 45 m 9,940 ft / 3,030 m 217.82° 219.82° Asphalt 0 ft / 0 m 90 ft / 27 m

Map

Weather


0- 5 10 15 20 25 30 35+ Temperature / ° C

Clouds and Precipitation
Forecast for 2017-12-16 06:00 UTC. Updated an hour ago

Ground ~20,000 ft ~40,000 ft Winds

METAR

SPSO 160200Z 21008KT CAVOK 19/17 Q1012 RMK BKN230 PP000

TAF

SPSO 152300Z 1600/1624 22020KT CAVOK TX25/1620Z TN16/1611Z BECMG 1601/1603 21010KT 8000 NSC BECMG 1604/1607 5000 BR BKN007 BECMG 1613/1617 33010KT 8000 SCT020 FM162200 24012KT CAVOK

Frequencies

Ground 121.90 MHz GND
Tower 118.30 MHz APP/TWR
Warning: Do not use this data for real-world aviation or navigation. No guarantee of current accuracy is given.